Time;durP1;ratioP1;P1;durP2;ratioP2;P2;SDS_P1;SDS_P2;PMS_P1;PMS_P2;Temp;Humidity;BMP_temperature;BMP_pressure;BME280_temperature;BME280_humidity;BME280_pressure;Samples;Min_cycle;Max_cycle;Signal;HPM_P1;HPM_P2
2023/08/27 00:00:10;;;;;;;;;3.00;2.50;;;;;19.66;57.15;100923.81;2028845;27;2745069;-73
2023/08/27 00:01:22;;;;;;;;;3.00;2.33;;;;;19.66;56.68;100929.16;2013694;27;2754442;-73
2023/08/27 00:02:35;;;;;;;;;3.17;2.17;;;;;19.63;57.04;100918.72;2069385;27;2725263;-73
2023/08/27 00:03:48;;;;;;;;;2.00;2.00;;;;;19.60;56.85;100917.13;2044638;27;2739853;-73
2023/08/27 00:05:02;;;;;;;;;3.33;2.33;;;;;19.56;56.86;100920.94;2044961;27;2723232;-73
2023/08/27 00:06:15;;;;;;;;;3.00;2.00;;;;;19.55;56.93;100917.44;2037010;27;2753394;-73
2023/08/27 00:07:28;;;;;;;;;2.00;2.00;;;;;19.50;57.40;100910.69;2031771;27;2740321;-73
2023/08/27 00:08:41;;;;;;;;;2.17;2.17;;;;;19.48;57.63;100910.81;2038510;27;2736768;-73
2023/08/27 00:09:52;;;;;;;;;2.00;2.00;;;;;19.44;57.21;100917.28;2019516;27;2750816;-73
2023/08/27 00:11:05;;;;;;;;;3.00;2.00;;;;;19.41;57.63;100918.34;2059267;27;2747140;-73
2023/08/27 00:12:16;;;;;;;;;2.00;2.00;;;;;19.38;57.87;100923.06;2043333;27;2742027;-73
2023/08/27 00:13:27;;;;;;;;;2.00;2.00;;;;;19.36;57.46;100916.97;2068025;27;2733644;-73
2023/08/27 00:14:40;;;;;;;;;1.00;1.00;;;;;19.34;57.72;100917.94;2068482;27;2725311;-73
2023/08/27 00:15:53;;;;;;;;;2.67;2.67;;;;;19.31;57.59;100918.13;2044766;27;2749627;-73
2023/08/27 00:17:06;;;;;;;;;3.00;2.83;;;;;19.29;57.63;100912.06;2044976;27;2737770;-73
2023/08/27 00:18:20;;;;;;;;;4.33;4.00;;;;;19.25;57.53;100910.56;2045738;27;2744059;-73
2023/08/27 00:19:30;;;;;;;;;2.67;2.00;;;;;19.24;57.96;100914.16;2022124;27;2753525;-73
2023/08/27 00:20:41;;;;;;;;;2.00;2.00;;;;;19.26;58.09;100909.59;2070022;27;2740901;-73
2023/08/27 00:21:54;;;;;;;;;3.00;3.00;;;;;19.26;58.09;100906.91;2036867;27;2733625;-75
2023/08/27 00:23:08;;;;;;;;;1.67;1.67;;;;;19.29;58.39;100914.72;2036945;27;2740219;-75
2023/08/27 00:24:21;;;;;;;;;2.00;2.00;;;;;19.32;57.78;100913.66;2036431;27;2738172;-75
2023/08/27 00:25:34;;;;;;;;;3.67;3.00;;;;;19.32;57.71;100914.53;2036815;27;2748185;-75
2023/08/27 00:26:47;;;;;;;;;3.00;3.00;;;;;19.32;58.25;100914.53;2045755;27;2731563;-74
2023/08/27 00:28:01;;;;;;;;;2.00;2.00;;;;;19.36;58.06;100914.31;2045433;27;2734660;-72
2023/08/27 00:29:18;;;;;;;;;2.33;2.00;;;;;19.40;57.75;100914.00;2045715;27;2746113;-72
2023/08/27 00:30:31;;;;;;;;;1.33;1.33;;;;;19.42;58.32;100904.09;2046730;27;2727385;-72
2023/08/27 00:31:44;;;;;;;;;1.83;1.83;;;;;19.45;58.27;100903.03;2036053;27;2750273;-72
2023/08/27 00:32:55;;;;;;;;;2.00;2.00;;;;;19.45;58.26;100900.34;2012174;27;2748222;-73
2023/08/27 00:34:06;;;;;;;;;2.00;2.00;;;;;19.49;57.88;100899.19;2067858;27;2746101;-73
2023/08/27 00:35:19;;;;;;;;;1.33;1.00;;;;;19.52;58.11;100901.63;2068101;27;2735693;-73
2023/08/27 00:36:32;;;;;;;;;1.00;1.00;;;;;19.55;58.42;100904.09;2036583;27;2729516;-72
2023/08/27 00:37:42;;;;;;;;;4.67;2.00;;;;;19.54;58.11;100898.84;2035003;27;2749253;-73
2023/08/27 00:38:53;;;;;;;;;1.00;1.00;;;;;19.57;58.07;100911.97;2069125;27;2724231;-72
2023/08/27 00:40:07;;;;;;;;;1.17;1.17;;;;;19.59;57.78;100909.19;2069071;27;2733622;-73
2023/08/27 00:41:20;;;;;;;;;3.67;1.00;;;;;19.59;57.65;100911.88;2046758;27;2727357;-72
2023/08/27 00:42:33;;;;;;;;;2.00;1.00;;;;;19.61;58.10;100912.59;2045152;27;2719047;-72
2023/08/27 00:43:47;;;;;;;;;1.67;1.67;;;;;19.62;58.03;100912.53;2044841;27;2733598;-72
2023/08/27 00:45:00;;;;;;;;;2.00;2.00;;;;;19.65;58.17;100917.66;2045820;27;2727430;-71
2023/08/27 00:46:13;;;;;;;;;1.50;1.50;;;;;19.68;57.93;100913.91;2047893;27;2733627;-71
2023/08/27 00:47:24;;;;;;;;;3.00;2.00;;;;;19.71;57.94;100919.03;2015480;27;2750287;-71
2023/08/27 00:48:37;;;;;;;;;2.33;2.33;;;;;19.75;57.97;100912.53;2070620;27;2748189;-72
2023/08/27 00:49:51;;;;;;;;;2.50;1.00;;;;;19.84;57.53;100913.69;2047133;27;2729517;-71
2023/08/27 00:51:04;;;;;;;;;1.17;1.17;;;;;19.89;57.41;100913.38;2047749;27;2720065;-74
2023/08/27 00:52:19;;;;;;;;;1.33;1.33;;;;;19.92;57.45;100910.50;2047742;27;2729425;-73
2023/08/27 00:53:34;;;;;;;;;1.00;0.50;;;;;19.95;57.09;100917.44;2048447;27;2722152;-73
2023/08/27 00:54:45;;;;;;;;;3.00;2.00;;;;;19.94;56.90;100916.56;2021105;27;2744590;-72
2023/08/27 00:55:57;;;;;;;;;2.00;1.00;;;;;19.95;56.73;100915.59;2070425;27;2725257;-72
2023/08/27 00:57:10;;;;;;;;;1.00;1.00;;;;;19.93;56.87;100914.84;2071627;27;2725776;-72
2023/08/27 00:58:23;;;;;;;;;1.67;1.67;;;;;19.93;56.94;100927.34;2048132;27;2729467;-72
2023/08/27 00:59:36;;;;;;;;;1.00;1.00;;;;;19.93;56.60;100928.19;2037921;27;2727352;-73
2023/08/27 01:00:49;;;;;;;;;1.00;1.00;;;;;19.94;56.59;100926.38;2035673;27;2726303;-72
2023/08/27 01:02:04;;;;;;;;;1.00;0.00;;;;;19.99;56.66;100918.91;2040087;27;2725285;-73
2023/08/27 01:03:17;;;;;;;;;1.00;1.00;;;;;20.04;55.98;100923.91;2039374;27;2723190;-73
2023/08/27 01:04:30;;;;;;;;;1.00;1.00;;;;;20.03;56.02;100923.06;2040992;27;2726339;-75
2023/08/27 01:05:44;;;;;;;;;2.83;0.50;;;;;20.04;56.11;100922.09;2046291;27;2737797;-74
2023/08/27 01:07:11;;;;;;;;;0.50;0.50;;;;;20.02;55.85;100919.56;2039719;27;2722209;-74
2023/08/27 01:08:40;;;;;;;;;1.00;1.00;;;;;20.02;55.67;100919.56;2037149;27;2729420;-75
2023/08/27 01:10:11;;;;;;;;;2.00;0.50;;;;;19.98;56.17;100926.06;2048051;27;2725334;-79
2023/08/27 01:11:34;;;;;;;;;0.83;0.83;;;;;19.98;56.50;100920.72;2038232;27;2729429;-80
2023/08/27 01:13:01;;;;;;;;;2.00;1.50;;;;;19.99;56.40;100916.25;2041665;27;2735682;-80
2023/08/27 01:14:16;;;;;;;;;1.00;1.00;;;;;20.05;56.40;100926.47;2048711;27;2714870;-75
2023/08/27 01:15:31;;;;;;;;;0.67;0.67;;;;;20.06;56.16;100913.97;2047916;27;2724224;-75
2023/08/27 01:16:48;;;;;;;;;1.00;1.00;;;;;20.06;56.15;100917.50;2047774;27;2723174;-75
2023/08/27 01:18:03;;;;;;;;;1.67;1.00;;;;;20.06;55.71;100922.00;2048380;27;2722160;-74
2023/08/27 01:19:17;;;;;;;;;1.00;1.00;;;;;20.04;55.56;100918.59;2048150;27;2729428;-73
2023/08/27 01:20:31;;;;;;;;;1.00;1.00;;;;;20.00;55.79;100924.13;2047325;27;2742973;-74
2023/08/27 01:21:44;;;;;;;;;1.33;0.00;;;;;19.99;55.80;100926.91;2047720;27;2727404;-73
2023/08/27 01:22:58;;;;;;;;;0.00;0.00;;;;;20.00;56.04;100925.97;2047931;27;2727376;-73
2023/08/27 01:24:11;;;;;;;;;1.00;1.00;;;;;20.00;55.56;100923.28;2036798;27;2719087;-72
2023/08/27 01:25:29;;;;;;;;;1.67;0.83;;;;;19.98;55.22;100926.06;2039000;27;2723213;-73
2023/08/27 01:27:00;;;;;;;;;0.67;0.67;;;;;19.98;55.86;100925.19;2046444;27;2739856;-72
2023/08/27 01:28:37;;;;;;;;;2.00;1.00;;;;;19.99;55.68;100922.44;2039382;27;2725296;-73
2023/08/27 01:29:53;;;;;;;;;0.67;0.17;;;;;19.99;55.53;100924.25;2034846;27;2731905;-73
2023/08/27 01:31:13;;;;;;;;;0.83;0.67;;;;;19.99;55.98;100922.44;2041782;27;2726304;-73
2023/08/27 01:32:32;;;;;;;;;1.00;1.00;;;;;19.99;55.97;100913.56;2047977;27;2729817;-73
2023/08/27 01:33:49;;;;;;;;;0.83;0.83;;;;;19.98;55.32;100918.06;2050594;27;2721107;-73
2023/08/27 01:35:03;;;;;;;;;0.83;0.83;;;;;19.94;55.68;100918.38;2045830;27;2726379;-73
2023/08/27 01:36:19;;;;;;;;;0.00;0.00;;;;;19.90;56.03;100920.44;2047216;27;2728387;-74
2023/08/27 01:37:33;;;;;;;;;0.00;0.00;;;;;19.85;55.68;100915.38;2047763;27;2722141;-74
2023/08/27 01:38:46;;;;;;;;;2.17;1.00;;;;;19.82;56.11;100917.44;2047121;27;2735698;-74
2023/08/27 01:40:01;;;;;;;;;0.50;0.50;;;;;19.78;55.88;100916.78;2047574;27;2727341;-74
2023/08/27 01:41:14;;;;;;;;;0.67;0.67;;;;;19.71;55.94;100907.50;2047700;27;2731577;-74
2023/08/27 01:42:27;;;;;;;;;0.33;0.33;;;;;19.67;56.40;100904.22;2046860;27;2729444;-73
2023/08/27 01:43:41;;;;;;;;;0.83;0.83;;;;;19.67;56.94;100901.53;2047730;27;2733626;-74
2023/08/27 01:44:55;;;;;;;;;0.83;0.83;;;;;19.66;56.41;100910.47;2038055;27;2733631;-74
2023/08/27 01:46:08;;;;;;;;;2.33;1.33;;;;;19.65;56.53;100908.78;2038878;27;2736728;-73
2023/08/27 01:47:22;;;;;;;;;0.83;0.00;;;;;19.62;56.59;100909.00;2046943;27;2725654;-74
2023/08/27 01:48:35;;;;;;;;;1.00;0.83;;;;;19.64;57.40;100909.75;2040905;27;2731539;-74
2023/08/27 01:49:48;;;;;;;;;0.00;0.00;;;;;19.65;57.08;100908.78;2037326;27;2725341;-74
2023/08/27 01:51:03;;;;;;;;;1.00;1.00;;;;;19.63;57.18;100916.88;2032230;27;2714896;-76
2023/08/27 01:52:17;;;;;;;;;1.00;1.00;;;;;19.62;57.07;100914.34;2046823;27;2728379;-76
2023/08/27 01:53:30;;;;;;;;;0.50;0.50;;;;;19.58;57.33;100916.38;2047915;27;2717966;-77
2023/08/27 01:54:43;;;;;;;;;0.83;0.83;;;;;19.52;57.37;100917.63;2038550;27;2726319;-77
2023/08/27 01:55:56;;;;;;;;;0.00;0.00;;;;;19.48;57.37;100910.81;2039299;27;2727345;-73
2023/08/27 01:57:09;;;;;;;;;0.00;0.00;;;;;19.48;57.46;100910.81;2047157;27;2721108;-73
2023/08/27 01:58:23;;;;;;;;;1.00;1.00;;;;;19.45;57.84;100903.03;2038042;27;2727365;-74
2023/08/27 01:59:36;;;;;;;;;1.67;1.00;;;;;19.43;57.59;100904.94;2040706;27;2725266;-74
2023/08/27 02:00:50;;;;;;;;;2.00;0.50;;;;;19.39;57.61;100904.28;2042518;27;2731527;-74
2023/08/27 02:02:03;;;;;;;;;1.00;0.83;;;;;19.38;57.73;100902.59;2046604;27;2735757;-73
2023/08/27 02:03:16;;;;;;;;;0.83;0.83;;;;;19.36;57.55;100901.00;2047640;27;2729439;-73
2023/08/27 02:04:29;;;;;;;;;0.17;0.17;;;;;19.33;58.05;100897.56;2047638;27;2729432;-72
2023/08/27 02:05:43;;;;;;;;;0.67;0.67;;;;;19.33;57.93;100900.22;2047629;27;2725285;-73
2023/08/27 02:06:56;;;;;;;;;0.00;0.00;;;;;19.33;57.90;100900.22;2047154;27;2721147;-73
2023/08/27 02:08:09;;;;;;;;;1.00;1.00;;;;;19.32;57.87;100895.88;2046123;27;2728438;-73
2023/08/27 02:09:22;;;;;;;;;1.00;0.33;;;;;19.31;57.92;100896.81;2047345;27;2727365;-73
2023/08/27 02:10:35;;;;;;;;;0.33;0.33;;;;;19.30;58.18;100899.59;2045686;27;2727364;-73
2023/08/27 02:11:50;;;;;;;;;0.00;0.00;;;;;19.29;58.03;100895.19;2047033;27;2728745;-75
2023/08/27 02:13:03;;;;;;;;;0.00;0.00;;;;;19.30;58.48;100902.25;2047632;27;2727365;-75
2023/08/27 02:14:16;;;;;;;;;1.00;1.00;;;;;19.33;57.86;100902.06;2047421;27;2727356;-75
2023/08/27 02:15:29;;;;;;;;;1.00;1.00;;;;;19.34;57.83;100896.59;2046158;27;2740253;-75
2023/08/27 02:16:43;;;;;;;;;1.67;1.00;;;;;19.34;57.73;100901.06;2046096;27;2732573;-75
2023/08/27 02:17:56;;;;;;;;;0.00;0.00;;;;;19.32;57.90;100906.53;2047354;27;2727364;-75
2023/08/27 02:19:09;;;;;;;;;0.17;0.17;;;;;19.32;57.95;100903.00;2047544;27;2724231;-75
2023/08/27 02:20:22;;;;;;;;;1.00;1.00;;;;;19.34;58.18;100907.25;2047352;27;2725278;-75
2023/08/27 02:21:36;;;;;;;;;1.17;1.17;;;;;19.37;57.57;100905.34;2047556;27;2729444;-76
2023/08/27 02:22:49;;;;;;;;;1.50;1.50;;;;;19.37;57.62;100908.88;2046042;27;2733602;-76
2023/08/27 02:24:03;;;;;;;;;1.00;1.00;;;;;19.34;58.20;100919.72;2038118;27;2719398;-75
2023/08/27 02:25:16;;;;;;;;;1.00;1.00;;;;;19.36;58.04;100914.31;2039790;27;2733609;-75
2023/08/27 02:26:29;;;;;;;;;1.00;1.00;;;;;19.34;57.92;100914.41;2046629;27;2725292;-75
2023/08/27 02:27:42;;;;;;;;;0.33;0.33;;;;;19.29;58.06;100914.72;2046270;27;2725298;-75
2023/08/27 02:28:55;;;;;;;;;1.17;1.17;;;;;19.26;58.16;100909.59;2046579;27;2725269;-78
2023/08/27 02:30:09;;;;;;;;;1.00;1.00;;;;;19.24;58.18;100903.50;2047036;27;2724236;-77
2023/08/27 02:31:22;;;;;;;;;0.00;0.00;;;;;19.22;58.46;100905.44;2038662;27;2722157;-78
2023/08/27 02:32:35;;;;;;;;;1.00;1.00;;;;;19.19;58.67;100897.63;2039740;27;2722149;-78
2023/08/27 02:33:49;;;;;;;;;2.67;1.83;;;;;19.20;58.05;100899.34;2069610;27;2727356;-77
2023/08/27 02:35:02;;;;;;;;;2.00;0.17;;;;;19.17;58.30;100904.84;2045817;27;2729437;-77
2023/08/27 02:36:15;;;;;;;;;0.83;0.83;;;;;19.11;58.62;100906.13;2047809;27;2722137;-77
2023/08/27 02:37:29;;;;;;;;;1.00;1.00;;;;;19.09;58.45;100908.03;2037738;27;2727359;-77
2023/08/27 02:38:42;;;;;;;;;1.33;1.33;;;;;19.06;58.42;100903.75;2039697;27;2731531;-77
2023/08/27 02:39:55;;;;;;;;;2.00;1.33;;;;;19.05;58.17;100902.06;2046994;27;2721622;-77
2023/08/27 02:41:08;;;;;;;;;1.50;1.50;;;;;19.04;59.19;100902.19;2047499;27;2722148;-77
2023/08/27 02:42:21;;;;;;;;;1.67;1.00;;;;;19.03;58.22;100898.66;2046024;27;2725254;-76
2023/08/27 02:43:34;;;;;;;;;0.83;0.83;;;;;19.05;58.81;100902.06;2070014;27;2724262;-77
2023/08/27 02:44:48;;;;;;;;;3.50;2.00;;;;;19.06;58.04;100906.41;2045885;27;2745075;-76
2023/08/27 02:45:58;;;;;;;;;2.00;1.67;;;;;19.06;58.27;100903.75;2019827;27;2740231;-77
2023/08/27 02:47:11;;;;;;;;;1.60;1.00;;;;;19.08;58.71;100907.19;2068765;27;2731547;-79
2023/08/27 02:48:24;;;;;;;;;0.00;0.00;;;;;19.11;58.92;100904.31;2070293;27;2721115;-77
2023/08/27 02:49:38;;;;;;;;;2.00;0.83;;;;;19.21;58.64;100915.22;2047519;27;2722145;-77
2023/08/27 02:50:51;;;;;;;;;1.00;1.00;;;;;19.29;58.10;100913.84;2047062;27;2722133;-77
2023/08/27 02:52:04;;;;;;;;;2.17;1.50;;;;;19.31;57.95;100910.13;2045418;27;2729462;-76
2023/08/27 02:53:18;;;;;;;;;0.17;0.17;;;;;19.32;58.10;100911.84;2046066;27;2725261;-79
2023/08/27 02:54:31;;;;;;;;;2.00;0.33;;;;;19.40;57.97;100905.16;2046040;27;2731519;-79
2023/08/27 02:55:44;;;;;;;;;1.33;1.33;;;;;19.44;57.58;100906.63;2069505;27;2729448;-79
2023/08/27 02:56:58;;;;;;;;;1.00;1.00;;;;;19.48;57.32;100907.28;2046778;27;2722153;-80
2023/08/27 02:58:11;;;;;;;;;1.67;0.83;;;;;19.53;57.21;100910.50;2068944;27;2737825;-80
2023/08/27 02:59:24;;;;;;;;;0.50;0.50;;;;;19.56;57.69;100911.13;2046242;27;2728419;-78
2023/08/27 03:00:40;;;;;;;;;3.50;1.17;;;;;19.58;57.48;100907.50;2046093;27;2724208;-79
2023/08/27 03:01:53;;;;;;;;;1.00;1.00;;;;;19.60;57.42;100910.91;2047363;27;2726343;-80
2023/08/27 03:03:08;;;;;;;;;0.67;0.00;;;;;19.63;56.99;100910.72;2070167;27;2724224;-80
2023/08/27 03:04:21;;;;;;;;;0.00;0.00;;;;;19.65;57.00;100908.78;2047405;27;2724238;-80
2023/08/27 03:05:34;;;;;;;;;0.83;0.83;;;;;19.66;56.58;100906.00;2046261;27;2733630;-75
2023/08/27 03:06:47;;;;;;;;;0.67;0.67;;;;;19.64;56.75;100909.75;2047185;27;2728410;-76
2023/08/27 03:08:00;;;;;;;;;1.00;1.00;;;;;19.62;57.26;100914.34;2046369;27;2728386;-76
2023/08/27 03:09:15;;;;;;;;;0.00;0.00;;;;;19.64;56.47;100918.59;2045688;27;2725306;-76
2023/08/27 03:10:28;;;;;;;;;1.83;1.00;;;;;19.64;57.66;100913.28;2038221;27;2729431;-76
2023/08/27 03:11:41;;;;;;;;;1.00;1.00;;;;;19.66;56.87;100911.34;2030531;27;2733622;-76
2023/08/27 03:12:54;;;;;;;;;1.00;1.00;;;;;19.68;56.48;100909.41;2037383;27;2734003;-77
2023/08/27 03:14:07;;;;;;;;;1.00;1.00;;;;;19.68;56.59;100908.56;2042826;27;2721127;-77
2023/08/27 03:15:21;;;;;;;;;1.33;1.33;;;;;19.67;56.04;100909.53;2037054;27;2724231;-77
2023/08/27 03:16:34;;;;;;;;;0.50;0.50;;;;;19.64;56.67;100912.41;2039884;27;2727381;-76
2023/08/27 03:17:47;;;;;;;;;1.00;1.00;;;;;19.60;56.40;100916.25;2070331;27;2731504;-74
2023/08/27 03:19:01;;;;;;;;;1.00;1.00;;;;;19.56;56.76;100918.25;2047189;27;2724225;-75
2023/08/27 03:20:14;;;;;;;;;1.17;1.17;;;;;19.58;56.64;100912.84;2046596;27;2725342;-76
2023/08/27 03:21:27;;;;;;;;;0.67;0.67;;;;;19.62;57.19;100914.34;2046754;27;2727361;-77
2023/08/27 03:22:40;;;;;;;;;0.67;0.50;;;;;19.65;57.18;100916.78;2046803;27;2733972;-76
2023/08/27 03:23:53;;;;;;;;;0.33;0.00;;;;;19.67;56.13;100920.19;2045216;27;2727404;-77
2023/08/27 03:25:07;;;;;;;;;2.00;1.00;;;;;19.68;56.46;100919.22;2030436;27;2731500;-76
2023/08/27 03:26:20;;;;;;;;;1.00;1.00;;;;;19.70;56.02;100922.66;2040114;27;2725696;-76
2023/08/27 03:27:36;;;;;;;;;1.17;0.83;;;;;19.71;56.61;100924.34;2046063;27;2724263;-77
2023/08/27 03:28:49;;;;;;;;;1.00;1.00;;;;;19.73;56.18;100926.94;2046284;27;2732565;-76
2023/08/27 03:30:03;;;;;;;;;1.00;1.00;;;;;19.75;55.74;100928.53;2047010;27;2725752;-76
2023/08/27 03:31:16;;;;;;;;;1.17;0.50;;;;;19.81;56.28;100934.38;2047590;27;2720069;-75
2023/08/27 03:32:30;;;;;;;;;1.17;0.17;;;;;19.84;55.99;100932.38;2045411;27;2727356;-76
2023/08/27 03:33:43;;;;;;;;;0.00;0.00;;;;;19.83;55.47;100927.97;2047468;27;2720077;-76
2023/08/27 03:34:56;;;;;;;;;1.00;1.00;;;;;19.81;55.24;100929.03;2069610;27;2727423;-76
2023/08/27 03:36:09;;;;;;;;;1.83;1.00;;;;;19.74;55.67;100931.28;2046912;27;2731615;-77
2023/08/27 03:37:22;;;;;;;;;1.00;1.00;;;;;19.68;55.85;100935.22;2038437;27;2724220;-77
2023/08/27 03:38:36;;;;;;;;;0.33;0.00;;;;;19.65;55.66;100935.47;2031344;27;2726352;-78
2023/08/27 03:39:49;;;;;;;;;0.50;0.50;;;;;19.65;55.84;100936.31;2038621;27;2740882;-77
2023/08/27 03:41:03;;;;;;;;;2.83;1.00;;;;;19.67;55.54;100936.19;2046557;27;2743387;-77
2023/08/27 03:42:16;;;;;;;;;0.00;0.00;;;;;19.67;56.01;100939.72;2037962;27;2722133;-77
2023/08/27 03:43:29;;;;;;;;;1.00;1.00;;;;;19.68;55.42;100937.88;2039311;27;2726809;-77
2023/08/27 03:44:43;;;;;;;;;1.67;1.00;;;;;19.68;55.46;100936.09;2046462;27;2735685;-77
2023/08/27 03:45:56;;;;;;;;;1.17;0.17;;;;;19.68;56.67;100940.56;2045651;27;2727389;-78
2023/08/27 03:47:09;;;;;;;;;1.00;1.00;;;;;19.70;56.16;100946.66;2045356;27;2739848;-77
2023/08/27 03:48:22;;;;;;;;;1.00;0.00;;;;;19.75;55.80;100943.69;2039078;27;2727353;-77
2023/08/27 03:49:35;;;;;;;;;2.00;1.00;;;;;19.77;55.48;100937.28;2046831;27;2728434;-74
2023/08/27 03:50:49;;;;;;;;;2.50;1.33;;;;;19.81;55.50;100939.72;2047328;27;2727357;-76
2023/08/27 03:52:02;;;;;;;;;3.00;1.00;;;;;19.82;55.60;100941.44;2046799;27;2724904;-76
2023/08/27 03:53:15;;;;;;;;;2.50;1.00;;;;;19.81;54.92;100939.72;2046895;27;2728407;-76
2023/08/27 03:54:30;;;;;;;;;1.00;1.00;;;;;19.75;55.50;100941.88;2046248;27;2725273;-76
2023/08/27 03:55:44;;;;;;;;;1.00;1.00;;;;;19.72;55.54;100944.75;2046406;27;2731554;-77
2023/08/27 03:56:57;;;;;;;;;0.33;0.33;;;;;19.70;55.39;100945.81;2038125;27;2725285;-76
2023/08/27 03:58:11;;;;;;;;;2.50;0.83;;;;;19.68;55.52;100949.41;2038337;27;2724263;-76
2023/08/27 03:59:25;;;;;;;;;1.00;1.00;;;;;19.67;56.29;100944.19;2046031;27;2734633;-76
2023/08/27 04:00:38;;;;;;;;;1.50;1.50;;;;;19.67;56.43;100944.19;2046006;27;2733606;-76
2023/08/27 04:01:52;;;;;;;;;0.83;0.83;;;;;19.73;55.97;100948.25;2046465;27;2725360;-75
2023/08/27 04:03:06;;;;;;;;;1.33;0.00;;;;;19.77;55.80;100945.28;2047400;27;2726311;-76
2023/08/27 04:04:19;;;;;;;;;1.00;1.00;;;;;19.84;55.84;100947.50;2045403;27;2731538;-76
2023/08/27 04:05:32;;;;;;;;;1.67;1.00;;;;;19.86;55.13;100945.59;2037207;27;2741932;-76
2023/08/27 04:06:46;;;;;;;;;0.00;0.00;;;;;19.86;55.30;100945.59;2031299;27;2725302;-76
2023/08/27 04:07:59;;;;;;;;;0.00;0.00;;;;;19.88;56.46;100949.00;2039248;27;2726311;-76
2023/08/27 04:09:12;;;;;;;;;1.00;1.00;;;;;19.92;55.16;100945.16;2046885;27;2727353;-75
2023/08/27 04:10:26;;;;;;;;;1.00;1.00;;;;;19.94;56.11;100950.38;2046470;27;2728419;-76
2023/08/27 04:11:40;;;;;;;;;1.17;0.50;;;;;19.95;55.56;100944.94;2033669;27;2727344;-75
2023/08/27 04:12:54;;;;;;;;;1.83;1.00;;;;;19.95;55.14;100952.09;2038835;27;2725293;-75
2023/08/27 04:14:08;;;;;;;;;1.67;1.67;;;;;19.89;54.74;100954.22;2046111;27;2737768;-74
2023/08/27 04:15:21;;;;;;;;;1.00;1.00;;;;;19.83;55.34;100949.31;2037255;27;2737788;-76
2023/08/27 04:16:34;;;;;;;;;1.00;0.50;;;;;19.76;55.12;100951.56;2039763;27;2724243;-76
2023/08/27 04:17:47;;;;;;;;;0.50;0.00;;;;;19.69;55.03;100958.28;2046113;27;2725280;-75
2023/08/27 04:19:01;;;;;;;;;0.00;0.00;;;;;19.61;55.53;100955.25;2046452;27;2727843;-75
2023/08/27 04:20:14;;;;;;;;;2.33;1.33;;;;;19.53;55.35;100964.63;2045347;27;2733690;-75
2023/08/27 04:21:27;;;;;;;;;0.83;0.83;;;;;19.45;55.91;100956.31;2048689;27;2723202;-75
2023/08/27 04:22:40;;;;;;;;;1.00;1.00;;;;;19.41;55.67;100960.16;2047759;27;2729452;-75
2023/08/27 04:23:55;;;;;;;;;2.17;1.00;;;;;19.38;56.06;100960.38;2045820;27;2732945;-76
2023/08/27 04:25:08;;;;;;;;;1.00;0.00;;;;;19.37;56.45;100959.50;2048320;27;2725295;-75
2023/08/27 04:26:22;;;;;;;;;1.00;1.00;;;;;19.37;56.10;100958.66;2047275;27;2731514;-75
2023/08/27 04:27:35;;;;;;;;;0.83;0.83;;;;;19.33;55.83;100964.16;2048412;27;2729452;-76
2023/08/27 04:28:50;;;;;;;;;0.83;0.83;;;;;19.29;56.42;100952.03;2046606;27;2731511;-75
2023/08/27 04:30:05;;;;;;;;;2.00;1.67;;;;;19.26;56.55;100962.88;2048600;27;2726839;-75
2023/08/27 04:31:18;;;;;;;;;1.33;0.50;;;;;19.21;56.33;100949.03;2048478;27;2722152;-75
2023/08/27 04:32:31;;;;;;;;;0.00;0.00;;;;;19.14;56.54;100961.03;2048583;27;2724750;-75
2023/08/27 04:33:45;;;;;;;;;2.50;1.00;;;;;19.06;57.03;100959.69;2046750;27;2735693;-75
2023/08/27 04:34:58;;;;;;;;;1.50;1.00;;;;;19.00;56.61;100958.31;2048252;27;2733660;-75
2023/08/27 04:36:11;;;;;;;;;0.00;0.00;;;;;18.93;57.33;100958.81;2046519;27;2725262;-75
2023/08/27 04:37:24;;;;;;;;;1.00;1.00;;;;;18.84;57.37;100955.78;2047597;27;2724243;-75
2023/08/27 04:38:38;;;;;;;;;2.33;1.00;;;;;18.77;57.87;100957.13;2047770;27;2733591;-81
2023/08/27 04:39:51;;;;;;;;;0.83;0.83;;;;;18.72;58.18;100964.56;2039371;27;2725321;-81
2023/08/27 04:41:04;;;;;;;;;1.00;1.00;;;;;18.71;58.59;100962.84;2039655;27;2730481;-81
2023/08/27 04:42:17;;;;;;;;;1.33;1.00;;;;;18.70;57.70;100961.13;2047494;27;2739884;-80
2023/08/27 04:43:30;;;;;;;;;2.00;1.00;;;;;18.69;59.09;100965.63;2048049;27;2727372;-80
2023/08/27 04:44:43;;;;;;;;;1.00;1.00;;;;;18.73;58.03;100967.13;2047890;27;2726331;-80
2023/08/27 04:45:57;;;;;;;;;1.33;1.00;;;;;18.73;57.68;100963.59;2046587;27;2730867;-80
2023/08/27 04:47:10;;;;;;;;;0.83;0.83;;;;;18.69;57.94;100968.28;2048527;27;2721137;-79
2023/08/27 04:48:23;;;;;;;;;2.17;0.00;;;;;18.68;57.41;100969.22;2038647;27;2735677;-79
2023/08/27 04:49:36;;;;;;;;;1.00;1.00;;;;;18.63;57.66;100974.00;2047036;27;2727400;-77
2023/08/27 04:50:49;;;;;;;;;1.00;1.00;;;;;18.60;58.42;100972.38;2046603;27;2725258;-77
2023/08/27 04:52:03;;;;;;;;;1.83;1.17;;;;;18.57;58.29;100974.41;2038702;27;2728392;-76
2023/08/27 04:53:17;;;;;;;;;3.00;0.00;;;;;18.53;58.55;100971.06;2040833;27;2723203;-77
2023/08/27 04:54:30;;;;;;;;;2.00;1.00;;;;;18.51;58.98;100976.50;2042639;27;2726323;-76
2023/08/27 04:55:43;;;;;;;;;1.67;1.67;;;;;18.50;58.91;100974.78;2029632;27;2744041;-76
2023/08/27 04:56:56;;;;;;;;;2.67;1.00;;;;;18.50;58.44;100973.91;2039743;27;2727412;-77
2023/08/27 04:58:10;;;;;;;;;1.00;1.00;;;;;18.48;58.31;100974.00;2047525;27;2724240;-77
2023/08/27 04:59:24;;;;;;;;;1.17;0.17;;;;;18.44;58.93;100981.34;2048200;27;2729531;-76
2023/08/27 05:00:37;;;;;;;;;1.17;0.67;;;;;18.42;58.35;100975.25;2038362;27;2734675;-77
2023/08/27 05:01:51;;;;;;;;;1.00;1.00;;;;;18.40;58.89;100982.47;2040434;27;2725737;-77
2023/08/27 05:03:04;;;;;;;;;0.50;0.50;;;;;18.37;58.82;100976.50;2047693;27;2727727;-79
2023/08/27 05:04:18;;;;;;;;;0.00;0.00;;;;;18.32;59.48;100972.31;2047260;27;2724253;-77
2023/08/27 05:05:31;;;;;;;;;1.00;0.67;;;;;18.31;59.38;100985.72;2046538;27;2728406;-79
2023/08/27 05:06:44;;;;;;;;;1.00;1.00;;;;;18.32;59.31;100982.94;2039600;27;2725301;-79
2023/08/27 05:07:57;;;;;;;;;1.17;1.00;;;;;18.33;59.41;100981.16;2031063;27;2724248;-77
2023/08/27 05:09:10;;;;;;;;;0.50;0.50;;;;;18.39;59.97;100978.13;2039909;27;2720446;-74
2023/08/27 05:10:24;;;;;;;;;1.00;0.00;;;;;18.49;58.37;100988.19;2047978;27;2725336;-74
2023/08/27 05:11:37;;;;;;;;;1.17;1.17;;;;;18.50;58.68;100981.88;2046377;27;2724641;-79
2023/08/27 05:12:50;;;;;;;;;1.00;0.83;;;;;18.49;58.72;100990.84;2035958;27;2727334;-79
2023/08/27 05:14:03;;;;;;;;;1.00;1.00;;;;;18.44;58.66;100978.69;2039614;27;2735717;-77
2023/08/27 05:15:20;;;;;;;;;1.00;1.00;;;;;18.43;58.51;100976.97;2039536;27;2729468;-77
2023/08/27 05:16:34;;;;;;;;;0.83;0.83;;;;;18.42;58.78;100985.06;2037684;27;2724232;-76
2023/08/27 05:17:48;;;;;;;;;1.83;1.33;;;;;18.39;58.84;100983.44;2039114;27;2723238;-76
2023/08/27 05:19:01;;;;;;;;;0.50;0.50;;;;;18.40;58.80;100985.13;2048168;27;2727367;-76
2023/08/27 05:20:15;;;;;;;;;1.00;1.00;;;;;18.40;58.80;100993.13;2046197;27;2737910;-76
2023/08/27 05:21:28;;;;;;;;;0.50;0.50;;;;;18.41;58.60;100993.97;2047335;27;2729540;-76
2023/08/27 05:22:42;;;;;;;;;1.00;1.00;;;;;18.40;58.57;100994.91;2046948;27;2728383;-76
2023/08/27 05:23:55;;;;;;;;;0.33;0.33;;;;;18.38;58.99;100992.38;2046832;27;2722184;-76
2023/08/27 05:25:09;;;;;;;;;1.17;0.50;;;;;18.40;59.44;100993.13;2047488;27;2729440;-76
2023/08/27 05:26:22;;;;;;;;;2.00;2.00;;;;;18.41;59.26;100984.19;2047779;27;2733625;-76
2023/08/27 05:27:35;;;;;;;;;0.00;0.00;;;;;18.47;59.08;100992.75;2046280;27;2725261;-76
2023/08/27 05:28:48;;;;;;;;;1.00;1.00;;;;;18.48;58.94;100995.31;2047622;27;2733614;-76
2023/08/27 05:30:02;;;;;;;;;2.67;1.17;;;;;18.49;58.80;100991.72;2046174;27;2732564;-76
2023/08/27 05:31:15;;;;;;;;;1.67;1.67;;;;;18.48;59.18;100994.44;2047462;27;2734672;-76
2023/08/27 05:32:29;;;;;;;;;2.50;1.83;;;;;18.49;59.24;100999.69;2044137;27;2750287;-76
2023/08/27 05:33:42;;;;;;;;;1.67;1.00;;;;;18.50;59.23;100987.22;2048522;27;2716936;-76
2023/08/27 05:34:55;;;;;;;;;1.00;1.00;;;;;18.49;58.70;100991.72;2061024;27;2729443;-75